PANCPADU

Guest
Details From PANC - Ted Stevens Anchorage Intl
To PADU - Unalaska
Flight Number -
Tags Generated
Created
Modified
Stats Distance 686 nm / 1,270 km
Max Altitude 0 ft / 0 m
Waypoints 4
Social Downloads 8
Likes 0
Share VATSIM

Download

Looking for another format? Having issues loading an existing format? Contact us
Advertisement - Login to hide

Notes

Generated

Route

PANC AKN60 DUT PADU

ID Type Via Altitude Latitude Longitude Leg Dist Tot Dist Heading (true) Name
O PANC APT - 0 ft / 0 m 61.16976˚ -150.00833˚ - 0 nm - -
AKN60 FIX - 0 ft / 0 m 58.75684˚ -156.82880˚ 250 nm 250 nm 238° / 232° -
DUT NDB - 0 ft / 0 m 53.90517˚ -166.54914˚ 434 nm 685 nm 232° / 224° DUTCH HARBOR NDB
O PADU APT - 0 ft / 0 m 53.90289˚ -166.55140˚ 0 nm 685 nm 210° / 210° UNALASKA

Altitude Profile

Advertisement - Login to hide

Weather


0- 5 10 15 20 25 30 35+ Temperature / ° C

Clouds and Precipitation
Forecast for 2018-05-22 18:00 UTC. Updated 3 hours ago

Ground ~20,000 ft ~40,000 ft Winds

PANC

Details ICAO PANC (ANC)
Name Ted Stevens Anchorage Intl
Region USA (Alaska)
Timezone America/Anchorage (UTC-8.0)
Stats Elevation 152 ft / 46 m (AMSL)
Location 61.174111° -149.995982°
Runways 3
Magnetic Variation 16.073° E

METAR

PANC 221953Z 24006KT 10SM SCT110 BKN200 13/03 A2966

Decode

TAF

PANC 221733Z 2218/2324 VRB05KT P6SM SCT100 BKN140 FM222200 16012G18KT P6SM SCT060 BKN120 FM230100 16015G25KT P6SM SCT060 BKN100 FM231400 15007KT P6SM SCT050 BKN080

Decode

Departure Runways

ID Width Length Bearing (true) Bearing (mag) Surface Threshold Offset Overrun Length
07L 151 ft / 46 m 10,563 ft / 3,220 m 89.88° 73.81° Asphalt 0 ft / 0 m 381 ft / 116 m
07R 151 ft / 46 m 10,862 ft / 3,311 m 89.85° 73.78° Asphalt 0 ft / 0 m 499 ft / 152 m
15 151 ft / 46 m 11,563 ft / 3,524 m 164.90° 148.83° Asphalt 200 ft / 61 m 220 ft / 67 m
25L 151 ft / 46 m 10,862 ft / 3,311 m 269.91° 253.84° Asphalt 0 ft / 0 m 151 ft / 46 m
25R 151 ft / 46 m 10,563 ft / 3,220 m 269.94° 253.87° Asphalt 0 ft / 0 m 381 ft / 116 m
33 151 ft / 46 m 11,563 ft / 3,524 m 344.91° 328.84° Asphalt 892 ft / 272 m 449 ft / 137 m

PADU

Details ICAO PADU (DUT)
Name UNALASKA
Region USA (Alaska)
Timezone America/Adak (UTC-9.0)
Stats Elevation 22 ft / 7 m (AMSL)
Location 53.899070° -166.545064°
Runways 1
Magnetic Variation 9.033° E

METAR

PADU 221956Z 00000KT 10SM BKN100 06/02 A2974 RMK AO2 SLP075 MH T00610017

Decode

TAF

PADU 221733Z 2218/2318 18006KT P6SM SCT020 BKN200 TEMPO 2218/2222 BKN025 FM222200 15010KT P6SM -RA SCT015 OVC025 FM230500 19008KT P6SM VCSH SCT020 BKN030 FM231200 23008KT P6SM VCSH SCT030 BKN045

Decode

Destination Runways

ID Width Length Bearing (true) Bearing (mag) Surface Threshold Offset Overrun Length
12 100 ft / 30 m 3,895 ft / 1,187 m 135.64° 126.61° Asphalt 100 ft / 30 m 0 ft / 0 m
30 100 ft / 30 m 3,895 ft / 1,187 m 315.65° 306.62° Asphalt 101 ft / 31 m 0 ft / 0 m

Popular Alternatives